sensor_id;sensor_type;location;lat;lon;timestamp;pressure;altitude;pressure_sealevel;temperature;humidity
35649;BME280;21768;48.562;13.414;2024-01-16T00:00:55;96440.69;;;1.27;61.96
35649;BME280;21768;48.562;13.414;2024-01-16T00:03:20;96446.19;;;1.23;62.21
35649;BME280;21768;48.562;13.414;2024-01-16T00:05:45;96448.66;;;1.23;62.30
35649;BME280;21768;48.562;13.414;2024-01-16T00:08:11;96447.16;;;1.25;62.14
35649;BME280;21768;48.562;13.414;2024-01-16T00:10:36;96444.66;;;1.25;62.14
35649;BME280;21768;48.562;13.414;2024-01-16T00:13:01;96449.53;;;1.23;62.13
35649;BME280;21768;48.562;13.414;2024-01-16T00:15:27;96450.13;;;1.21;62.02
35649;BME280;21768;48.562;13.414;2024-01-16T00:17:52;96452.13;;;1.25;62.02
35649;BME280;21768;48.562;13.414;2024-01-16T00:20:18;96455.34;;;1.24;61.92
35649;BME280;21768;48.562;13.414;2024-01-16T00:22:43;96453.50;;;1.21;62.00
35649;BME280;21768;48.562;13.414;2024-01-16T00:25:10;96458.59;;;1.23;62.18
35649;BME280;21768;48.562;13.414;2024-01-16T00:27:35;96468.25;;;1.20;61.99
35649;BME280;21768;48.562;13.414;2024-01-16T00:30:01;96466.78;;;1.22;61.87
35649;BME280;21768;48.562;13.414;2024-01-16T00:32:26;96470.63;;;1.18;61.75
35649;BME280;21768;48.562;13.414;2024-01-16T00:34:52;96466.53;;;1.19;61.89
35649;BME280;21768;48.562;13.414;2024-01-16T00:37:17;96474.59;;;1.26;62.02
35649;BME280;21768;48.562;13.414;2024-01-16T00:39:43;96473.13;;;1.28;61.61
35649;BME280;21768;48.562;13.414;2024-01-16T00:42:08;96477.22;;;1.28;62.00
35649;BME280;21768;48.562;13.414;2024-01-16T00:44:33;96477.81;;;1.25;61.63
35649;BME280;21768;48.562;13.414;2024-01-16T00:47:00;96479.56;;;1.26;61.76
35649;BME280;21768;48.562;13.414;2024-01-16T00:49:27;96482.78;;;1.25;61.77
35649;BME280;21768;48.562;13.414;2024-01-16T00:51:53;96484.91;;;1.21;61.71
35649;BME280;21768;48.562;13.414;2024-01-16T00:54:18;96492.84;;;1.17;61.40
35649;BME280;21768;48.562;13.414;2024-01-16T00:56:43;96495.31;;;1.17;61.73
35649;BME280;21768;48.562;13.414;2024-01-16T00:59:09;96491.34;;;1.19;61.51
35649;BME280;21768;48.562;13.414;2024-01-16T01:01:37;96485.53;;;1.18;61.42
35649;BME280;21768;48.562;13.414;2024-01-16T01:04:02;96493.25;;;1.21;61.37
35649;BME280;21768;48.562;13.414;2024-01-16T01:06:27;96510.63;;;1.21;61.54
35649;BME280;21768;48.562;13.414;2024-01-16T01:08:53;96500.91;;;1.24;61.54
35649;BME280;21768;48.562;13.414;2024-01-16T01:11:18;96500.91;;;1.24;61.50
35649;BME280;21768;48.562;13.414;2024-01-16T01:13:43;96494.59;;;1.18;61.42
35649;BME280;21768;48.562;13.414;2024-01-16T01:16:09;96497.06;;;1.18;61.49
35649;BME280;21768;48.562;13.414;2024-01-16T01:18:34;96508.47;;;1.16;60.91
35649;BME280;21768;48.562;13.414;2024-01-16T01:21:00;96509.81;;;1.12;61.17
35649;BME280;21768;48.562;13.414;2024-01-16T01:23:25;96525.59;;;1.13;61.16
35649;BME280;21768;48.562;13.414;2024-01-16T01:25:51;96532.91;;;1.11;61.18
35649;BME280;21768;48.562;13.414;2024-01-16T01:28:16;96537.28;;;1.14;60.88
35649;BME280;21768;48.562;13.414;2024-01-16T01:30:42;96529.97;;;1.15;60.60
35649;BME280;21768;48.562;13.414;2024-01-16T01:33:07;96531.69;;;1.16;60.59
35649;BME280;21768;48.562;13.414;2024-01-16T01:35:32;96530.97;;;1.17;60.43
35649;BME280;21768;48.562;13.414;2024-01-16T01:37:58;96535.81;;;1.16;60.58
35649;BME280;21768;48.562;13.414;2024-01-16T01:40:23;96534.06;;;1.15;60.53
35649;BME280;21768;48.562;13.414;2024-01-16T01:42:48;96541.78;;;1.18;60.43
35649;BME280;21768;48.562;13.414;2024-01-16T01:45:14;96546.00;;;1.19;59.90
35649;BME280;21768;48.562;13.414;2024-01-16T01:47:41;96553.59;;;1.20;60.17
35649;BME280;21768;48.562;13.414;2024-01-16T01:50:09;96552.22;;;1.24;59.97
35649;BME280;21768;48.562;13.414;2024-01-16T01:52:37;96551.84;;;1.19;59.91
35649;BME280;21768;48.562;13.414;2024-01-16T01:55:03;96559.91;;;1.17;59.95
35649;BME280;21768;48.562;13.414;2024-01-16T01:57:33;96558.41;;;1.19;60.14
35649;BME280;21768;48.562;13.414;2024-01-16T01:59:58;96556.94;;;1.21;59.71
35649;BME280;21768;48.562;13.414;2024-01-16T02:02:23;96561.78;;;1.19;59.87
35649;BME280;21768;48.562;13.414;2024-01-16T02:04:49;96562.03;;;1.22;59.48
35649;BME280;21768;48.562;13.414;2024-01-16T02:07:15;96565.41;;;1.23;59.24
35649;BME280;21768;48.562;13.414;2024-01-16T02:09:41;96572.72;;;1.21;58.94
35649;BME280;21768;48.562;13.414;2024-01-16T02:12:07;96559.16;;;1.18;59.31
35649;BME280;21768;48.562;13.414;2024-01-16T02:14:32;96568.50;;;1.20;58.79
35649;BME280;21768;48.562;13.414;2024-01-16T02:16:58;96567.75;;;1.21;58.79
35649;BME280;21768;48.562;13.414;2024-01-16T02:19:23;96572.84;;;1.23;58.86
35649;BME280;21768;48.562;13.414;2024-01-16T02:21:51;96566.13;;;1.22;58.63
35649;BME280;21768;48.562;13.414;2024-01-16T02:24:18;96574.69;;;1.25;58.16
35649;BME280;21768;48.562;13.414;2024-01-16T02:26:44;96569.59;;;1.24;58.59
35649;BME280;21768;48.562;13.414;2024-01-16T02:29:10;96582.28;;;1.27;58.70
35649;BME280;21768;48.562;13.414;2024-01-16T02:31:35;96586.97;;;1.24;58.75
35649;BME280;21768;48.562;13.414;2024-01-16T02:34:01;96581.28;;;1.25;58.96
35649;BME280;21768;48.562;13.414;2024-01-16T02:36:27;96589.72;;;1.27;58.85
35649;BME280;21768;48.562;13.414;2024-01-16T02:38:54;96580.06;;;1.30;58.51
35649;BME280;21768;48.562;13.414;2024-01-16T02:41:20;96576.84;;;1.31;58.38
35649;BME280;21768;48.562;13.414;2024-01-16T02:43:45;96581.94;;;1.32;58.53
35649;BME280;21768;48.562;13.414;2024-01-16T02:46:11;96580.59;;;1.36;57.78
35649;BME280;21768;48.562;13.414;2024-01-16T02:48:37;96582.06;;;1.34;57.58
35649;BME280;21768;48.562;13.414;2024-01-16T02:51:02;96585.31;;;1.33;57.43
35649;BME280;21768;48.562;13.414;2024-01-16T02:53:31;96577.59;;;1.30;57.44
35649;BME280;21768;48.562;13.414;2024-01-16T02:55:57;96582.00;;;1.24;57.72
35649;BME280;21768;48.562;13.414;2024-01-16T02:58:29;96584.41;;;1.22;57.82
35649;BME280;21768;48.562;13.414;2024-01-16T03:00:56;96591.94;;;1.24;57.39
35649;BME280;21768;48.562;13.414;2024-01-16T03:03:21;96603.63;;;1.25;57.89
35649;BME280;21768;48.562;13.414;2024-01-16T03:05:47;96597.78;;;1.24;58.14
35649;BME280;21768;48.562;13.414;2024-01-16T03:08:13;96602.16;;;1.27;57.87
35649;BME280;21768;48.562;13.414;2024-01-16T03:10:38;96600.19;;;1.23;57.76
35649;BME280;21768;48.562;13.414;2024-01-16T03:13:04;96601.41;;;1.28;57.77
35649;BME280;21768;48.562;13.414;2024-01-16T03:15:29;96600.41;;;1.26;57.69
35649;BME280;21768;48.562;13.414;2024-01-16T03:17:56;96602.03;;;1.25;57.85
35649;BME280;21768;48.562;13.414;2024-01-16T03:20:22;96611.97;;;1.25;57.80
35649;BME280;21768;48.562;13.414;2024-01-16T03:22:48;96599.66;;;1.27;57.90
35649;BME280;21768;48.562;13.414;2024-01-16T03:25:14;96609.59;;;1.27;57.63
35649;BME280;21768;48.562;13.414;2024-01-16T03:27:39;96619.53;;;1.27;57.87
35649;BME280;21768;48.562;13.414;2024-01-16T03:30:05;96617.19;;;1.28;57.77
35649;BME280;21768;48.562;13.414;2024-01-16T03:32:31;96619.81;;;1.30;57.67
35649;BME280;21768;48.562;13.414;2024-01-16T03:34:57;96628.00;;;1.29;57.76
35649;BME280;21768;48.562;13.414;2024-01-16T03:37:22;96628.13;;;1.30;57.83
35649;BME280;21768;48.562;13.414;2024-01-16T03:39:48;96628.28;;;1.32;57.81
35649;BME280;21768;48.562;13.414;2024-01-16T03:42:15;96631.03;;;1.35;57.59
35649;BME280;21768;48.562;13.414;2024-01-16T03:44:40;96632.50;;;1.33;57.38
35649;BME280;21768;48.562;13.414;2024-01-16T03:47:06;96635.00;;;1.33;57.29
35649;BME280;21768;48.562;13.414;2024-01-16T03:49:32;96625.06;;;1.33;57.41
35649;BME280;21768;48.562;13.414;2024-01-16T03:51:57;96632.38;;;1.31;57.21
35649;BME280;21768;48.562;13.414;2024-01-16T03:54:23;96643.44;;;1.35;57.47
35649;BME280;21768;48.562;13.414;2024-01-16T03:56:48;96639.50;;;1.37;57.29
35649;BME280;21768;48.562;13.414;2024-01-16T03:59:13;96637.59;;;1.34;57.40
35649;BME280;21768;48.562;13.414;2024-01-16T04:01:39;96646.66;;;1.34;57.45
35649;BME280;21768;48.562;13.414;2024-01-16T04:04:04;96647.41;;;1.33;57.31
35649;BME280;21768;48.562;13.414;2024-01-16T04:06:32;96642.16;;;1.30;57.25
35649;BME280;21768;48.562;13.414;2024-01-16T04:08:58;96653.13;;;1.32;57.29
35649;BME280;21768;48.562;13.414;2024-01-16T04:11:23;96651.50;;;1.32;57.34
35649;BME280;21768;48.562;13.414;2024-01-16T04:13:49;96658.09;;;1.32;57.26
35649;BME280;21768;48.562;13.414;2024-01-16T04:16:15;96661.31;;;1.31;57.23
35649;BME280;21768;48.562;13.414;2024-01-16T04:18:42;96659.28;;;1.27;57.39
35649;BME280;21768;48.562;13.414;2024-01-16T04:21:08;96660.44;;;1.30;57.61
35649;BME280;21768;48.562;13.414;2024-01-16T04:23:34;96660.44;;;1.30;57.28
35649;BME280;21768;48.562;13.414;2024-01-16T04:25:59;96655.56;;;1.22;57.15
35649;BME280;21768;48.562;13.414;2024-01-16T04:28:24;96649.09;;;1.24;57.30
35649;BME280;21768;48.562;13.414;2024-01-16T04:30:50;96660.75;;;1.25;57.08
35649;BME280;21768;48.562;13.414;2024-01-16T04:33:16;96667.84;;;1.20;56.92
35649;BME280;21768;48.562;13.414;2024-01-16T04:35:41;96671.38;;;1.14;57.17
35649;BME280;21768;48.562;13.414;2024-01-16T04:38:07;96660.84;;;1.16;57.06
35649;BME280;21768;48.562;13.414;2024-01-16T04:40:33;96665.69;;;1.15;56.93
35649;BME280;21768;48.562;13.414;2024-01-16T04:42:58;96671.38;;;1.14;57.09
35649;BME280;21768;48.562;13.414;2024-01-16T04:45:24;96666.41;;;1.14;57.03
35649;BME280;21768;48.562;13.414;2024-01-16T04:47:49;96666.41;;;1.14;57.10
35649;BME280;21768;48.562;13.414;2024-01-16T04:50:15;96675.34;;;1.12;57.09
35649;BME280;21768;48.562;13.414;2024-01-16T04:52:40;96682.19;;;1.14;57.56
35649;BME280;21768;48.562;13.414;2024-01-16T04:55:06;96681.31;;;1.14;57.17
35649;BME280;21768;48.562;13.414;2024-01-16T04:57:32;96687.50;;;1.09;56.96
35649;BME280;21768;48.562;13.414;2024-01-16T04:59:58;96690.56;;;1.06;57.03
35649;BME280;21768;48.562;13.414;2024-01-16T05:02:23;96676.72;;;0.99;57.13
35649;BME280;21768;48.562;13.414;2024-01-16T05:04:49;96670.28;;;1.01;57.05
35649;BME280;21768;48.562;13.414;2024-01-16T05:07:14;96676.13;;;1.02;57.01
35649;BME280;21768;48.562;13.414;2024-01-16T05:09:40;96675.00;;;0.98;56.95
35649;BME280;21768;48.562;13.414;2024-01-16T05:12:05;96673.41;;;0.99;57.08
35649;BME280;21768;48.562;13.414;2024-01-16T05:14:30;96680.22;;;1.01;57.15
35649;BME280;21768;48.562;13.414;2024-01-16T05:16:56;96682.25;;;1.06;57.15
35649;BME280;21768;48.562;13.414;2024-01-16T05:19:21;96680.50;;;1.05;57.04
35649;BME280;21768;48.562;13.414;2024-01-16T05:21:46;96686.19;;;1.03;57.01
35649;BME280;21768;48.562;13.414;2024-01-16T05:24:12;96685.31;;;1.03;57.17
35649;BME280;21768;48.562;13.414;2024-01-16T05:26:37;96684.00;;;1.07;57.20
35649;BME280;21768;48.562;13.414;2024-01-16T05:29:02;96685.94;;;1.00;57.26
35649;BME280;21768;48.562;13.414;2024-01-16T05:31:28;96693.13;;;0.97;57.41
35649;BME280;21768;48.562;13.414;2024-01-16T05:33:53;96680.84;;;0.99;57.34
35649;BME280;21768;48.562;13.414;2024-01-16T05:36:18;96689.41;;;1.02;57.37
35649;BME280;21768;48.562;13.414;2024-01-16T05:38:44;96693.66;;;1.03;57.28
35649;BME280;21768;48.562;13.414;2024-01-16T05:41:09;96698.63;;;1.03;57.29
35649;BME280;21768;48.562;13.414;2024-01-16T05:43:35;96695.66;;;1.08;57.31
35649;BME280;21768;48.562;13.414;2024-01-16T05:46:00;96697.00;;;1.04;57.40
35649;BME280;21768;48.562;13.414;2024-01-16T05:48:26;96698.03;;;1.06;57.23
35649;BME280;21768;48.562;13.414;2024-01-16T05:50:51;96689.97;;;1.09;57.18
35649;BME280;21768;48.562;13.414;2024-01-16T05:53:16;96692.44;;;1.09;57.16
35649;BME280;21768;48.562;13.414;2024-01-16T05:55:42;96689.84;;;1.07;57.22
35649;BME280;21768;48.562;13.414;2024-01-16T05:58:07;96690.72;;;1.08;57.43
35649;BME280;21768;48.562;13.414;2024-01-16T06:00:32;96695.66;;;1.08;57.32
35649;BME280;21768;48.562;13.414;2024-01-16T06:02:59;96693.06;;;1.06;57.09
35649;BME280;21768;48.562;13.414;2024-01-16T06:05:25;96695.81;;;1.09;56.98
35649;BME280;21768;48.562;13.414;2024-01-16T06:07:50;96699.63;;;1.06;56.94
35649;BME280;21768;48.562;13.414;2024-01-16T06:10:15;96698.63;;;1.03;56.99
35649;BME280;21768;48.562;13.414;2024-01-16T06:12:41;96711.50;;;0.99;56.83
35649;BME280;21768;48.562;13.414;2024-01-16T06:15:07;96701.56;;;0.99;57.15
35649;BME280;21768;48.562;13.414;2024-01-16T06:17:32;96708.03;;;0.97;56.78
35649;BME280;21768;48.562;13.414;2024-01-16T06:19:57;96712.44;;;0.91;57.01
35649;BME280;21768;48.562;13.414;2024-01-16T06:22:23;96715.94;;;0.93;57.07
35649;BME280;21768;48.562;13.414;2024-01-16T06:24:48;96717.00;;;1.06;57.16
35649;BME280;21768;48.562;13.414;2024-01-16T06:27:13;96718.75;;;1.07;56.52
35649;BME280;21768;48.562;13.414;2024-01-16T06:29:50;96708.56;;;1.03;56.81
35649;BME280;21768;48.562;13.414;2024-01-16T06:32:16;96721.38;;;1.08;56.56
35649;BME280;21768;48.562;13.414;2024-01-16T06:34:42;96719.03;;;1.10;56.69
35649;BME280;21768;48.562;13.414;2024-01-16T06:37:07;96719.91;;;1.10;56.96
35649;BME280;21768;48.562;13.414;2024-01-16T06:39:33;96712.03;;;1.06;56.54
35649;BME280;21768;48.562;13.414;2024-01-16T06:41:59;96718.56;;;0.95;56.43
35649;BME280;21768;48.562;13.414;2024-01-16T06:44:25;96710.97;;;0.93;56.69
35649;BME280;21768;48.562;13.414;2024-01-16T06:46:50;96717.25;;;0.90;56.83
35649;BME280;21768;48.562;13.414;2024-01-16T06:49:15;96722.38;;;0.91;57.06
35649;BME280;21768;48.562;13.414;2024-01-16T06:51:40;96719.00;;;0.91;56.84
35649;BME280;21768;48.562;13.414;2024-01-16T06:54:06;96724.72;;;0.90;57.16
35649;BME280;21768;48.562;13.414;2024-01-16T06:56:31;96729.50;;;0.97;56.85
35649;BME280;21768;48.562;13.414;2024-01-16T06:58:56;96724.19;;;1.02;56.86
35649;BME280;21768;48.562;13.414;2024-01-16T07:01:22;96715.25;;;1.05;56.94
35649;BME280;21768;48.562;13.414;2024-01-16T07:03:47;96727.50;;;1.12;56.65
35649;BME280;21768;48.562;13.414;2024-01-16T07:06:13;96737.84;;;1.16;56.79
35649;BME280;21768;48.562;13.414;2024-01-16T07:08:38;96731.69;;;1.21;56.94
35649;BME280;21768;48.562;13.414;2024-01-16T07:11:04;96739.53;;;1.26;57.14
35649;BME280;21768;48.562;13.414;2024-01-16T07:13:33;96753.09;;;1.29;57.33
35649;BME280;21768;48.562;13.414;2024-01-16T07:15:58;96756.00;;;1.34;57.46
35649;BME280;21768;48.562;13.414;2024-01-16T07:18:24;96767.94;;;1.38;57.53
35649;BME280;21768;48.562;13.414;2024-01-16T07:20:50;96761.50;;;1.40;57.51
35649;BME280;21768;48.562;13.414;2024-01-16T07:23:15;96758.28;;;1.41;57.66
35649;BME280;21768;48.562;13.414;2024-01-16T07:25:40;96759.56;;;1.46;57.61
35649;BME280;21768;48.562;13.414;2024-01-16T07:28:06;96756.72;;;1.52;57.65
35649;BME280;21768;48.562;13.414;2024-01-16T07:30:31;96766.94;;;1.55;57.55
35649;BME280;21768;48.562;13.414;2024-01-16T07:32:56;96773.34;;;1.61;57.71
35649;BME280;21768;48.562;13.414;2024-01-16T07:35:22;96769.06;;;1.69;57.35
35649;BME280;21768;48.562;13.414;2024-01-16T07:37:47;96764.81;;;1.68;57.36
35649;BME280;21768;48.562;13.414;2024-01-16T07:40:12;96770.53;;;1.67;57.40
35649;BME280;21768;48.562;13.414;2024-01-16T07:42:38;96778.63;;;1.75;57.43
35649;BME280;21768;48.562;13.414;2024-01-16T07:45:04;96774.94;;;1.80;57.29
35649;BME280;21768;48.562;13.414;2024-01-16T07:47:30;96774.00;;;1.88;56.74
35649;BME280;21768;48.562;13.414;2024-01-16T07:49:57;96775.16;;;1.91;56.69
35649;BME280;21768;48.562;13.414;2024-01-16T07:52:22;96774.69;;;1.95;56.60
35649;BME280;21768;48.562;13.414;2024-01-16T07:54:47;96774.41;;;1.92;55.89
35649;BME280;21768;48.562;13.414;2024-01-16T07:57:13;96765.75;;;1.97;56.08
35649;BME280;21768;48.562;13.414;2024-01-16T07:59:39;96772.09;;;2.04;55.98
35649;BME280;21768;48.562;13.414;2024-01-16T08:02:06;96769.66;;;2.14;55.95
35649;BME280;21768;48.562;13.414;2024-01-16T08:04:31;96765.84;;;2.18;55.13
35649;BME280;21768;48.562;13.414;2024-01-16T08:06:56;96768.47;;;2.19;54.84
35649;BME280;21768;48.562;13.414;2024-01-16T08:09:22;96776.13;;;2.12;55.02
35649;BME280;21768;48.562;13.414;2024-01-16T08:11:47;96768.19;;;2.16;55.30
35649;BME280;21768;48.562;13.414;2024-01-16T08:14:12;96772.44;;;2.17;54.64
35649;BME280;21768;48.562;13.414;2024-01-16T08:16:38;96769.13;;;2.08;54.82
35649;BME280;21768;48.562;13.414;2024-01-16T08:19:04;96765.78;;;2.08;54.62
35649;BME280;21768;48.562;13.414;2024-01-16T08:21:29;96768.78;;;2.14;54.77
35649;BME280;21768;48.562;13.414;2024-01-16T08:23:55;96765.47;;;2.23;54.63
35649;BME280;21768;48.562;13.414;2024-01-16T08:26:20;96768.72;;;2.22;53.93
35649;BME280;21768;48.562;13.414;2024-01-16T08:28:45;96771.41;;;2.15;53.93
35649;BME280;21768;48.562;13.414;2024-01-16T08:31:11;96770.44;;;2.23;54.29
35649;BME280;21768;48.562;13.414;2024-01-16T08:33:36;96778.03;;;2.25;53.84
35649;BME280;21768;48.562;13.414;2024-01-16T08:36:03;96778.91;;;2.25;53.92
35649;BME280;21768;48.562;13.414;2024-01-16T08:38:29;96780.84;;;2.38;53.66
35649;BME280;21768;48.562;13.414;2024-01-16T08:40:54;96782.00;;;2.42;53.52
35649;BME280;21768;48.562;13.414;2024-01-16T08:43:20;96780.91;;;2.58;53.46
35649;BME280;21768;48.562;13.414;2024-01-16T08:45:45;96781.84;;;2.69;53.54
35649;BME280;21768;48.562;13.414;2024-01-16T08:48:13;96775.75;;;2.86;53.71
35649;BME280;21768;48.562;13.414;2024-01-16T08:50:40;96776.28;;;2.92;53.05
35649;BME280;21768;48.562;13.414;2024-01-16T08:53:05;96770.81;;;2.96;52.99
35649;BME280;21768;48.562;13.414;2024-01-16T08:55:32;96781.66;;;3.06;52.46
35649;BME280;21768;48.562;13.414;2024-01-16T08:57:57;96771.91;;;2.99;52.67
35649;BME280;21768;48.562;13.414;2024-01-16T09:00:22;96771.16;;;2.90;52.00
35649;BME280;21768;48.562;13.414;2024-01-16T09:02:48;96774.66;;;2.92;51.76
35649;BME280;21768;48.562;13.414;2024-01-16T09:05:14;96767.53;;;2.87;51.78
35649;BME280;21768;48.562;13.414;2024-01-16T09:07:40;96772.91;;;2.91;51.35
35649;BME280;21768;48.562;13.414;2024-01-16T09:10:06;96772.91;;;2.91;51.96
35649;BME280;21768;48.562;13.414;2024-01-16T09:12:32;96767.22;;;3.13;51.23
35649;BME280;21768;48.562;13.414;2024-01-16T09:14:58;96767.19;;;3.23;51.23
35649;BME280;21768;48.562;13.414;2024-01-16T09:17:24;96773.72;;;3.41;51.33
35649;BME280;21768;48.562;13.414;2024-01-16T09:19:50;96767.84;;;3.61;50.09
35649;BME280;21768;48.562;13.414;2024-01-16T09:22:16;96779.19;;;3.57;50.29
35649;BME280;21768;48.562;13.414;2024-01-16T09:24:42;96765.34;;;3.71;49.45
35649;BME280;21768;48.562;13.414;2024-01-16T09:27:07;96769.13;;;3.98;49.87
35649;BME280;21768;48.562;13.414;2024-01-16T09:29:35;96763.25;;;4.07;49.92
35649;BME280;21768;48.562;13.414;2024-01-16T09:32:00;96767.63;;;4.10;49.38
35649;BME280;21768;48.562;13.414;2024-01-16T09:34:25;96765.88;;;4.09;50.05
35649;BME280;21768;48.562;13.414;2024-01-16T09:36:51;96774.59;;;4.14;50.11
35649;BME280;21768;48.562;13.414;2024-01-16T09:39:16;96772.38;;;4.07;49.28
35649;BME280;21768;48.562;13.414;2024-01-16T09:41:44;96771.63;;;3.98;49.73
35649;BME280;21768;48.562;13.414;2024-01-16T09:44:10;96779.16;;;3.88;49.28
35649;BME280;21768;48.562;13.414;2024-01-16T09:46:38;96777.03;;;3.72;49.24
35649;BME280;21768;48.562;13.414;2024-01-16T09:49:05;96778.56;;;3.70;49.44
35649;BME280;21768;48.562;13.414;2024-01-16T09:51:30;96781.41;;;3.74;49.30
35649;BME280;21768;48.562;13.414;2024-01-16T09:53:56;96779.53;;;3.72;49.62
35649;BME280;21768;48.562;13.414;2024-01-16T09:56:22;96770.44;;;3.52;48.90
35649;BME280;21768;48.562;13.414;2024-01-16T09:58:50;96773.09;;;3.44;49.63
35649;BME280;21768;48.562;13.414;2024-01-16T10:01:20;96773.69;;;3.51;49.42
35649;BME280;21768;48.562;13.414;2024-01-16T10:03:46;96774.34;;;3.38;49.31
35649;BME280;21768;48.562;13.414;2024-01-16T10:06:13;96767.59;;;3.37;49.67
35649;BME280;21768;48.562;13.414;2024-01-16T10:08:40;96770.56;;;3.54;50.09
35649;BME280;21768;48.562;13.414;2024-01-16T10:11:06;96765.34;;;3.51;49.15
35649;BME280;21768;48.562;13.414;2024-01-16T10:13:32;96769.97;;;3.46;49.35
35649;BME280;21768;48.562;13.414;2024-01-16T10:15:58;96764.72;;;3.53;49.20
35649;BME280;21768;48.562;13.414;2024-01-16T10:18:28;96765.47;;;3.62;49.31
35649;BME280;21768;48.562;13.414;2024-01-16T10:20:59;96756.22;;;3.71;49.42
35649;BME280;21768;48.562;13.414;2024-01-16T10:23:28;96754.47;;;3.81;49.71
35649;BME280;21768;48.562;13.414;2024-01-16T10:28:37;96758.00;;;4.04;49.29
35649;BME280;21768;48.562;13.414;2024-01-16T10:33:29;96750.03;;;4.08;49.05
35649;BME280;21768;48.562;13.414;2024-01-16T10:38:43;96749.22;;;4.52;48.94
35649;BME280;21768;48.562;13.414;2024-01-16T10:43:34;96752.19;;;4.36;48.70
35649;BME280;21768;48.562;13.414;2024-01-16T10:46:09;96742.66;;;4.42;47.94
35649;BME280;21768;48.562;13.414;2024-01-16T10:48:35;96746.22;;;4.56;47.64
35649;BME280;21768;48.562;13.414;2024-01-16T10:51:02;96746.28;;;4.67;47.87
35649;BME280;21768;48.562;13.414;2024-01-16T10:53:32;96739.31;;;4.85;47.51
35649;BME280;21768;48.562;13.414;2024-01-16T10:55:59;96739.03;;;4.92;46.66
35649;BME280;21768;48.562;13.414;2024-01-16T10:58:25;96741.19;;;4.99;47.15
35649;BME280;21768;48.562;13.414;2024-01-16T11:00:52;96735.84;;;5.17;46.26
35649;BME280;21768;48.562;13.414;2024-01-16T11:03:47;96739.00;;;5.26;47.02
35649;BME280;21768;48.562;13.414;2024-01-16T11:06:18;96738.41;;;5.40;46.36
35649;BME280;21768;48.562;13.414;2024-01-16T11:08:48;96732.47;;;5.61;45.83
35649;BME280;21768;48.562;13.414;2024-01-16T11:11:14;96742.53;;;6.08;45.61
35649;BME280;21768;48.562;13.414;2024-01-16T11:13:40;96727.72;;;6.34;44.74
35649;BME280;21768;48.562;13.414;2024-01-16T11:16:10;96727.44;;;6.55;43.91
35649;BME280;21768;48.562;13.414;2024-01-16T11:18:36;96717.22;;;6.52;43.57
35649;BME280;21768;48.562;13.414;2024-01-16T11:21:04;96714.22;;;6.32;43.06
35649;BME280;21768;48.562;13.414;2024-01-16T11:23:31;96725.22;;;6.11;44.00
35649;BME280;21768;48.562;13.414;2024-01-16T11:25:57;96723.47;;;5.87;43.24
35649;BME280;21768;48.562;13.414;2024-01-16T11:28:28;96728.97;;;5.59;44.38
35649;BME280;21768;48.562;13.414;2024-01-16T11:30:56;96714.84;;;5.71;44.21
35649;BME280;21768;48.562;13.414;2024-01-16T11:35:56;96708.09;;;5.70;44.31
35649;BME280;21768;48.562;13.414;2024-01-16T11:38:23;96700.66;;;5.94;44.78
35649;BME280;21768;48.562;13.414;2024-01-16T11:40:49;96693.66;;;6.13;43.69
35649;BME280;21768;48.562;13.414;2024-01-16T11:45:58;96696.00;;;6.83;42.69
35649;BME280;21768;48.562;13.414;2024-01-16T11:48:24;96683.34;;;7.06;42.11
35649;BME280;21768;48.562;13.414;2024-01-16T11:50:50;96689.97;;;7.31;41.85
35649;BME280;21768;48.562;13.414;2024-01-16T12:01:50;96671.28;;;9.00;40.30
35649;BME280;21768;48.562;13.414;2024-01-16T12:04:16;96666.72;;;9.23;39.86
35649;BME280;21768;48.562;13.414;2024-01-16T12:06:43;96668.16;;;9.04;39.05
35649;BME280;21768;48.562;13.414;2024-01-16T12:09:16;96649.00;;;8.64;39.80
35649;BME280;21768;48.562;13.414;2024-01-16T12:11:43;96650.75;;;8.51;40.37
35649;BME280;21768;48.562;13.414;2024-01-16T12:14:13;96648.22;;;8.10;40.06
35649;BME280;21768;48.562;13.414;2024-01-16T12:16:38;96648.06;;;8.22;40.38
35649;BME280;21768;48.562;13.414;2024-01-16T12:19:07;96645.41;;;8.06;39.69
35649;BME280;21768;48.562;13.414;2024-01-16T12:21:44;96653.53;;;7.75;39.97
35649;BME280;21768;48.562;13.414;2024-01-16T12:24:12;96652.44;;;7.45;40.53
35649;BME280;21768;48.562;13.414;2024-01-16T12:26:38;96656.28;;;7.27;40.99
35649;BME280;21768;48.562;13.414;2024-01-16T12:29:07;96647.72;;;7.50;41.12
35649;BME280;21768;48.562;13.414;2024-01-16T12:31:32;96639.94;;;7.85;40.42
35649;BME280;21768;48.562;13.414;2024-01-16T12:34:05;96640.16;;;8.29;40.01
35649;BME280;21768;48.562;13.414;2024-01-16T12:36:32;96640.22;;;8.57;39.34
35649;BME280;21768;48.562;13.414;2024-01-16T12:38:57;96634.63;;;8.76;39.68
35649;BME280;21768;48.562;13.414;2024-01-16T12:41:23;96633.63;;;8.87;39.50
35649;BME280;21768;48.562;13.414;2024-01-16T12:43:52;96632.34;;;9.08;39.03
35649;BME280;21768;48.562;13.414;2024-01-16T12:46:18;96628.19;;;9.24;38.68
35649;BME280;21768;48.562;13.414;2024-01-16T12:48:44;96625.81;;;8.97;39.16
35649;BME280;21768;48.562;13.414;2024-01-16T12:51:10;96624.44;;;8.60;39.76
35649;BME280;21768;48.562;13.414;2024-01-16T12:53:37;96619.75;;;8.25;39.95
35649;BME280;21768;48.562;13.414;2024-01-16T12:56:05;96628.34;;;7.87;40.51
35649;BME280;21768;48.562;13.414;2024-01-16T12:58:37;96621.28;;;7.42;40.97
35649;BME280;21768;48.562;13.414;2024-01-16T13:01:22;96624.66;;;6.91;42.03
35649;BME280;21768;48.562;13.414;2024-01-16T13:03:49;96634.41;;;6.62;42.49
35649;BME280;21768;48.562;13.414;2024-01-16T13:06:19;96628.38;;;6.35;42.87
35649;BME280;21768;48.562;13.414;2024-01-16T13:08:46;96626.28;;;6.16;43.53
35649;BME280;21768;48.562;13.414;2024-01-16T13:11:12;96613.22;;;5.97;43.81
35649;BME280;21768;48.562;13.414;2024-01-16T13:13:40;96608.66;;;5.79;43.81
35649;BME280;21768;48.562;13.414;2024-01-16T13:16:06;96605.97;;;5.65;44.14
35649;BME280;21768;48.562;13.414;2024-01-16T13:18:32;96612.69;;;5.54;44.29